Terminal Aerodrome Forecast
Issued by NWS Wilmington, NC

Home | Current Version | Previous Version | Text Only | Print | Product List | Glossary On
Versions: 1 2 3 4 5 6 7 8 9 10 11 12 13 14 15
000
FTUS42 KILM 191720
TAFLBT
TAF
KLBT 191720Z 1918/2018 25004KT P6SM VCTS SCT035CB BKN120
     FM192100 28002KT P6SM SKC
     FM200700 00000KT 4SM BR SKC
     FM201000 00000KT 1/4SM FG SKC
     FM201500 06003KT P6SM SKC=

USA.gov is the U.S. government's official web portal to all federal, state and local government web resources and services.